Time;durP1;ratioP1;P1;durP2;ratioP2;P2;SDS_P1;SDS_P2;PMS_P1;PMS_P2;Temp;Humidity;BMP_temperature;BMP_pressure;BME280_temperature;BME280_humidity;BME280_pressure;Samples;Min_cycle;Max_cycle;Signal;HPM_P1;HPM_P2
2022/09/29 00:01:05;;;;;;;0.10;0.10;;;;;;;4.18;100.00;99943.28;5082044;28;20040;-68
2022/09/29 00:03:30;;;;;;;0.10;0.10;;;;;;;4.24;100.00;99949.97;5082551;28;20065;-68
2022/09/29 00:05:55;;;;;;;0.10;0.10;;;;;;;4.29;100.00;99947.88;5081646;28;20028;-68
2022/09/29 00:08:24;;;;;;;0.10;0.10;;;;;;;4.36;100.00;99949.19;5084778;28;20032;-67
2022/09/29 00:10:50;;;;;;;0.10;0.10;;;;;;;4.44;100.00;99954.00;5083979;28;20020;-67
2022/09/29 00:13:16;;;;;;;0.10;0.10;;;;;;;4.34;100.00;99933.31;5086351;28;20047;-68
2022/09/29 00:15:41;;;;;;;0.10;0.10;;;;;;;4.55;100.00;99953.28;5084991;28;20107;-67
2022/09/29 00:18:08;;;;;;;0.10;0.10;;;;;;;4.68;100.00;99945.31;5074466;28;20066;-68
2022/09/29 00:20:34;;;;;;;0.10;0.10;;;;;;;4.74;100.00;99936.94;5085995;28;20093;-68
2022/09/29 00:22:59;;;;;;;0.10;0.10;;;;;;;4.87;100.00;99943.09;5083973;28;20027;-68
2022/09/29 00:25:24;;;;;;;0.10;0.10;;;;;;;4.97;100.00;99942.47;5078057;28;20082;-68
2022/09/29 00:27:50;;;;;;;0.10;0.10;;;;;;;4.87;100.00;99918.31;5083157;28;20027;-68
2022/09/29 00:30:15;;;;;;;0.10;0.10;;;;;;;5.06;100.00;99929.41;5082392;28;20067;-67
2022/09/29 00:32:40;;;;;;;0.10;0.10;;;;;;;5.21;100.00;99934.59;5087293;28;20035;-68
2022/09/29 00:35:07;;;;;;;0.10;0.10;;;;;;;5.27;100.00;99926.19;5082048;28;20039;-68
2022/09/29 00:37:33;;;;;;;0.10;0.10;;;;;;;5.27;100.00;99928.84;5078740;28;20572;-68
2022/09/29 00:39:58;;;;;;;0.03;0.03;;;;;;;5.30;100.00;99938.44;5081762;28;20030;-67
2022/09/29 00:42:23;;;;;;;1.15;1.05;;;;;;;5.18;100.00;99933.00;5078241;28;20036;-68
2022/09/29 00:45:04;;;;;;;0.10;0.10;;;;;;;5.09;100.00;99930.97;5086310;28;20601;-68
2022/09/29 00:47:31;;;;;;;0.10;0.10;;;;;;;5.09;100.00;99929.19;5085536;28;20028;-68
2022/09/29 00:50:04;;;;;;;0.10;0.10;;;;;;;5.07;100.00;99923.13;5084725;28;20027;-68
2022/09/29 00:52:36;;;;;;;0.10;0.10;;;;;;;5.10;100.00;99928.22;5084677;28;20036;-67
2022/09/29 00:55:17;;;;;;;0.10;0.10;;;;;;;5.13;100.00;99931.63;5088161;28;20032;-68
2022/09/29 00:57:50;;;;;;;0.20;0.20;;;;;;;5.10;100.00;99922.03;5080467;28;20032;-68
2022/09/29 01:00:15;;;;;;;0.10;0.10;;;;;;;4.99;100.00;99906.00;5084886;28;20077;-68
2022/09/29 01:02:47;;;;;;;0.10;0.10;;;;;;;5.05;100.00;99929.47;5084255;28;20099;-68
2022/09/29 01:05:16;;;;;;;0.10;0.10;;;;;;;4.93;100.00;99937.38;5084906;28;20489;-67
2022/09/29 01:07:45;;;;;;;0.15;0.15;;;;;;;4.88;100.00;99936.00;5089636;28;20458;-68
2022/09/29 01:10:13;;;;;;;2.63;2.38;;;;;;;4.74;100.00;99929.78;5075925;28;20057;-67
2022/09/29 01:12:38;;;;;;;0.10;0.10;;;;;;;4.65;100.00;99923.28;5084535;28;20027;-68
2022/09/29 01:15:04;;;;;;;0.13;0.10;;;;;;;4.71;100.00;99937.97;5084749;28;20024;-68
2022/09/29 01:17:29;;;;;;;0.10;0.10;;;;;;;4.70;100.00;99936.28;5083873;28;20028;-67
2022/09/29 01:20:12;;;;;;;0.10;0.10;;;;;;;4.68;100.00;99934.69;5085702;28;21331;-67
2022/09/29 01:23:01;;;;;;;0.30;0.30;;;;;;;4.62;100.00;99935.97;5084615;28;20066;-68
2022/09/29 01:25:41;;;;;;;0.10;0.10;;;;;;;4.63;100.00;99930.53;5076487;28;20028;-67
2022/09/29 01:28:09;;;;;;;0.10;0.10;;;;;;;4.69;100.00;99947.03;5085816;28;20032;-68
2022/09/29 01:30:53;;;;;;;0.10;0.10;;;;;;;4.64;100.00;99942.88;5085021;28;20075;-67
2022/09/29 01:33:27;;;;;;;1.10;1.00;;;;;;;4.50;100.00;99942.94;5087760;28;20028;-68
2022/09/29 01:36:02;;;;;;;0.20;0.20;;;;;;;4.41;100.00;99938.25;5086304;28;20077;-67
2022/09/29 01:38:56;;;;;;;0.10;0.10;;;;;;;4.33;100.00;99952.03;5081434;28;20035;-67
2022/09/29 01:41:31;;;;;;;0.30;0.30;;;;;;;4.18;100.00;99945.94;5078769;28;20051;-67
2022/09/29 01:44:05;;;;;;;0.15;0.15;;;;;;;3.98;100.00;99950.72;5086466;28;20483;-67
2022/09/29 01:46:34;;;;;;;0.10;0.10;;;;;;;3.80;100.00;99938.63;5085352;28;20020;-67
2022/09/29 01:49:01;;;;;;;0.20;0.20;;;;;;;3.72;100.00;99944.44;5087576;28;20028;-68
2022/09/29 01:51:40;;;;;;;0.10;0.10;;;;;;;3.67;100.00;99942.06;5088860;28;20028;-67
2022/09/29 01:54:12;;;;;;;0.15;0.15;;;;;;;3.62;100.00;99943.28;5083356;28;20051;-67
2022/09/29 01:56:49;;;;;;;0.20;0.20;;;;;;;3.62;100.00;99948.59;5068795;28;20024;-67
2022/09/29 01:59:20;;;;;;;0.20;0.20;;;;;;;3.63;100.00;99953.84;5084240;28;20028;-67
2022/09/29 02:01:47;;;;;;;0.20;0.20;;;;;;;3.60;100.00;99946.06;5085637;28;20058;-68
2022/09/29 02:04:17;;;;;;;0.13;0.13;;;;;;;3.43;100.00;99933.84;5078567;28;20036;-68
2022/09/29 02:06:47;;;;;;;0.10;0.10;;;;;;;3.39;100.00;99949.13;5094724;28;20027;-68
2022/09/29 02:09:18;;;;;;;0.20;0.20;;;;;;;3.31;100.00;99930.16;5085312;28;20031;-67
2022/09/29 02:11:44;;;;;;;0.10;0.10;;;;;;;3.48;100.00;99947.69;5083458;28;20749;-68
2022/09/29 02:14:19;;;;;;;0.20;0.20;;;;;;;3.37;100.00;99926.25;5074395;28;20028;-68
2022/09/29 02:16:48;;;;;;;0.20;0.20;;;;;;;3.57;100.00;99948.91;5075160;28;20059;-68
2022/09/29 02:19:15;;;;;;;0.10;0.10;;;;;;;3.62;100.00;99946.81;5080205;28;20109;-68
2022/09/29 02:21:41;;;;;;;0.10;0.10;;;;;;;3.42;100.00;99911.78;5082447;28;20780;-68
2022/09/29 02:24:07;;;;;;;0.10;0.10;;;;;;;3.69;100.00;99949.94;5082091;28;20028;-68
2022/09/29 02:26:33;;;;;;;0.10;0.10;;;;;;;3.75;100.00;99955.69;5076450;28;20497;-68
2022/09/29 02:29:00;;;;;;;0.10;0.10;;;;;;;3.73;100.00;99946.97;5079091;28;20032;-67
2022/09/29 02:31:25;;;;;;;0.00;0.00;;;;;;;3.63;100.00;99932.59;5073326;28;20376;-67
2022/09/29 02:33:50;;;;;;;0.10;0.10;;;;;;;3.78;100.00;99952.00;5085212;28;20478;-67
2022/09/29 02:36:39;;;;;;;0.20;0.20;;;;;;;3.75;100.00;99947.72;5082188;28;20093;-68
2022/09/29 02:39:14;;;;;;;0.10;0.10;;;;;;;3.54;100.00;99920.75;5081222;28;20024;-67
2022/09/29 02:41:49;;;;;;;0.10;0.10;;;;;;;3.78;100.00;99953.78;5079083;28;20440;-67
2022/09/29 02:44:32;;;;;;;0.20;0.20;;;;;;;3.78;100.00;99954.66;5077534;28;20031;-68
2022/09/29 02:47:37;;;;;;;0.30;0.30;;;;;;;3.79;100.00;99940.44;5077522;28;20028;-67
2022/09/29 02:50:12;;;;;;;0.10;0.10;;;;;;;3.78;100.00;99943.19;5072982;28;20032;-67
2022/09/29 02:53:03;;;;;;;0.60;0.60;;;;;;;3.75;100.00;99944.25;5080939;28;20443;-67
2022/09/29 02:55:48;;;;;;;0.20;0.20;;;;;;;3.62;100.00;99949.47;5075603;28;20032;-67
2022/09/29 02:58:31;;;;;;;0.30;0.30;;;;;;;3.52;100.00;99943.03;5077851;28;20035;-68
2022/09/29 03:00:57;;;;;;;0.25;0.25;;;;;;;3.53;100.00;99942.06;5077907;28;20121;-67
2022/09/29 03:03:22;;;;;;;0.10;0.10;;;;;;;3.36;100.00;99925.41;5085253;28;20040;-68
2022/09/29 03:05:48;;;;;;;0.10;0.10;;;;;;;3.44;100.00;99946.16;5086256;28;20324;-68
2022/09/29 03:08:13;;;;;;;0.10;0.10;;;;;;;3.44;100.00;99947.00;5081476;28;20102;-68
2022/09/29 03:10:38;;;;;;;0.20;0.20;;;;;;;3.48;100.00;99949.47;5084981;28;20134;-67
2022/09/29 03:13:04;;;;;;;0.10;0.10;;;;;;;3.52;100.00;99943.91;5081514;28;20031;-68
2022/09/29 03:15:29;;;;;;;0.10;0.10;;;;;;;3.54;100.00;99942.00;5088309;28;20530;-68
2022/09/29 03:17:56;;;;;;;0.10;0.10;;;;;;;3.57;100.00;99943.59;5102759;28;20042;-68
2022/09/29 03:20:21;;;;;;;0.10;0.10;;;;;;;3.60;100.00;99949.56;5086734;28;20111;-67
2022/09/29 03:22:46;;;;;;;0.10;0.10;;;;;;;3.53;100.00;99939.44;5093115;28;20119;-67
2022/09/29 03:25:13;;;;;;;0.10;0.10;;;;;;;3.66;100.00;99944.81;5087859;28;20067;-67
2022/09/29 03:27:38;;;;;;;0.10;0.10;;;;;;;3.70;100.00;99944.53;5082169;28;20024;-67
2022/09/29 03:30:04;;;;;;;0.10;0.10;;;;;;;3.67;100.00;99947.38;5090431;28;20135;-67
2022/09/29 03:32:29;;;;;;;0.10;0.10;;;;;;;3.66;100.00;99943.03;5079796;28;20061;-67
2022/09/29 03:34:55;;;;;;;1.02;0.93;;;;;;;3.38;100.00;99923.53;5081211;28;20036;-67
2022/09/29 03:37:20;;;;;;;0.10;0.10;;;;;;;3.49;100.00;99944.09;5085680;28;20474;-67
2022/09/29 03:39:45;;;;;;;0.10;0.10;;;;;;;3.47;100.00;99951.28;5085600;28;20032;-68
2022/09/29 03:42:10;;;;;;;0.10;0.10;;;;;;;3.47;100.00;99947.75;5084515;28;20059;-67
2022/09/29 03:44:36;;;;;;;3.03;2.42;;;;;;;3.42;100.00;99948.94;5084994;28;20247;-67
2022/09/29 03:47:01;;;;;;;0.10;0.10;;;;;;;3.36;100.00;99951.97;5086233;28;20051;-68
2022/09/29 03:49:26;;;;;;;0.10;0.10;;;;;;;3.33;100.00;99956.56;5084157;28;20426;-67
2022/09/29 03:51:52;;;;;;;0.10;0.10;;;;;;;3.28;100.00;99954.22;5084717;28;20497;-68
2022/09/29 03:54:17;;;;;;;0.10;0.10;;;;;;;3.26;100.00;99949.03;5089921;28;20371;-68
2022/09/29 03:56:42;;;;;;;0.10;0.10;;;;;;;3.19;100.00;99954.78;5079788;28;20056;-68
2022/09/29 03:59:10;;;;;;;0.10;0.10;;;;;;;3.09;100.00;99958.00;5085772;28;20429;-68
2022/09/29 04:01:37;;;;;;;0.30;0.30;;;;;;;3.00;100.00;99954.13;5080061;28;20016;-67
2022/09/29 04:04:02;;;;;;;0.30;0.30;;;;;;;2.95;100.00;99956.19;5085158;28;20055;-67
2022/09/29 04:06:28;;;;;;;0.17;0.17;;;;;;;2.89;100.00;99956.56;5079974;28;20550;-67
2022/09/29 04:08:53;;;;;;;0.10;0.10;;;;;;;2.85;100.00;99963.84;5083734;28;20027;-67
2022/09/29 04:11:18;;;;;;;0.20;0.20;;;;;;;2.81;100.00;99961.44;5086093;28;20488;-68
2022/09/29 04:13:44;;;;;;;0.10;0.10;;;;;;;2.82;100.00;99966.69;5085081;28;20039;-67
2022/09/29 04:16:09;;;;;;;0.20;0.20;;;;;;;2.73;100.00;99940.69;5078050;28;20261;-68
2022/09/29 04:18:35;;;;;;;0.10;0.10;;;;;;;2.92;100.00;99968.75;5086608;28;20039;-67
2022/09/29 04:21:07;;;;;;;0.10;0.10;;;;;;;2.94;100.00;99975.69;5076939;28;20093;-67
2022/09/29 04:23:33;;;;;;;0.10;0.10;;;;;;;2.85;100.00;99958.53;5091936;28;20147;-68
2022/09/29 04:25:59;;;;;;;0.10;0.10;;;;;;;2.98;100.00;99979.88;5084586;28;20094;-67
2022/09/29 04:28:26;;;;;;;0.10;0.10;;;;;;;3.00;100.00;99974.47;5084365;28;20032;-67
2022/09/29 04:30:51;;;;;;;0.20;0.20;;;;;;;2.88;100.00;99946.06;5083625;28;20032;-67
2022/09/29 04:33:16;;;;;;;0.10;0.10;;;;;;;2.98;100.00;99979.88;5082757;28;20035;-67
2022/09/29 04:35:42;;;;;;;0.10;0.10;;;;;;;2.96;100.00;99975.59;5083983;28;20036;-67
2022/09/29 04:38:08;;;;;;;0.10;0.10;;;;;;;2.96;100.00;99984.41;5096268;28;20050;-67
2022/09/29 04:40:34;;;;;;;0.10;0.10;;;;;;;2.94;100.00;99990.75;5085609;28;20036;-67
2022/09/29 04:43:00;;;;;;;0.10;0.10;;;;;;;2.91;100.00;99985.66;5087540;28;20054;-67
2022/09/29 04:45:25;;;;;;;0.10;0.10;;;;;;;2.87;100.00;99987.59;5083339;28;20051;-67
2022/09/29 04:47:51;;;;;;;1.40;1.30;;;;;;;2.83;100.00;99992.25;5081040;28;20047;-67
2022/09/29 04:50:16;;;;;;;0.32;0.32;;;;;;;2.80;100.00;99989.78;5079328;28;20055;-67
2022/09/29 04:52:42;;;;;;;0.38;0.38;;;;;;;2.78;100.00;99989.00;5078631;28;20028;-67
2022/09/29 04:55:10;;;;;;;0.20;0.20;;;;;;;2.71;100.00;99995.59;5082124;28;20035;-67
2022/09/29 04:57:35;;;;;;;0.10;0.10;;;;;;;2.65;100.00;99993.34;5082501;28;20054;-67
2022/09/29 05:00:00;;;;;;;0.10;0.10;;;;;;;2.48;100.00;99976.59;5080817;28;20114;-67
2022/09/29 05:02:26;;;;;;;0.15;0.15;;;;;;;2.59;100.00;99994.53;5082832;28;20096;-68
2022/09/29 05:04:51;;;;;;;0.10;0.10;;;;;;;2.59;100.00;99985.75;5082368;28;20071;-67
2022/09/29 05:07:17;;;;;;;0.10;0.10;;;;;;;2.59;100.00;99997.19;5088771;28;20397;-67
2022/09/29 05:09:42;;;;;;;0.10;0.10;;;;;;;2.61;100.00;99994.47;5088245;28;20118;-67
2022/09/29 05:12:07;;;;;;;0.10;0.10;;;;;;;2.63;100.00;100000.53;5083899;28;20045;-67
2022/09/29 05:14:33;;;;;;;0.10;0.10;;;;;;;2.62;100.00;100004.94;5087610;28;20046;-67
2022/09/29 05:16:59;;;;;;;0.08;0.08;;;;;;;2.43;100.00;99977.81;5087139;28;20024;-67
2022/09/29 05:19:24;;;;;;;0.10;0.10;;;;;;;2.47;100.00;100008.50;5078751;28;20067;-68
2022/09/29 05:21:50;;;;;;;0.10;0.10;;;;;;;2.39;100.00;100011.56;5083859;28;20031;-67
2022/09/29 05:24:15;;;;;;;0.20;0.20;;;;;;;2.37;100.00;100016.97;5082593;28;20114;-67
2022/09/29 05:26:41;;;;;;;0.10;0.10;;;;;;;2.35;100.00;100024.16;5080303;28;20020;-67
2022/09/29 05:29:06;;;;;;;0.10;0.10;;;;;;;2.38;100.00;100018.66;5082602;28;20024;-67
2022/09/29 05:31:31;;;;;;;0.20;0.20;;;;;;;2.28;100.00;100006.88;5079406;28;20033;-67
2022/09/29 05:33:57;;;;;;;0.10;0.10;;;;;;;2.44;100.00;100013.97;5077697;28;20045;-67
2022/09/29 05:36:23;;;;;;;0.85;0.80;;;;;;;2.48;100.00;100026.13;5079634;28;20406;-67
2022/09/29 05:38:49;;;;;;;0.20;0.20;;;;;;;2.42;100.00;100024.63;5081821;28;20031;-68
2022/09/29 05:41:17;;;;;;;0.20;0.20;;;;;;;2.35;100.00;100036.56;5078357;28;20450;-67
2022/09/29 05:43:42;;;;;;;0.10;0.10;;;;;;;2.30;100.00;100039.44;5080635;28;20068;-67
2022/09/29 05:46:08;;;;;;;0.10;0.10;;;;;;;2.32;100.00;100042.03;5087915;28;20028;-67
2022/09/29 05:48:34;;;;;;;0.20;0.20;;;;;;;2.32;100.00;100048.16;5079795;28;20506;-68
2022/09/29 05:51:07;;;;;;;0.10;0.10;;;;;;;2.28;100.00;100033.38;5083872;28;20043;-68
2022/09/29 05:53:32;;;;;;;0.10;0.10;;;;;;;2.36;100.00;100041.75;5079184;28;20024;-68
2022/09/29 05:55:58;;;;;;;0.20;0.20;;;;;;;2.43;100.00;100054.66;5084896;28;20012;-68
2022/09/29 05:58:24;;;;;;;0.17;0.17;;;;;;;2.48;100.00;100042.00;5062836;28;20024;-67
2022/09/29 06:00:49;;;;;;;0.20;0.20;;;;;;;2.51;100.00;100045.31;5078080;28;20097;-67
2022/09/29 06:03:14;;;;;;;0.10;0.10;;;;;;;2.49;100.00;100051.66;5081451;28;20039;-68
2022/09/29 06:05:40;;;;;;;0.10;0.10;;;;;;;2.49;100.00;100047.22;5085957;28;20078;-67
2022/09/29 06:08:05;;;;;;;0.10;0.10;;;;;;;2.62;100.00;100052.66;5080004;28;20024;-68
2022/09/29 06:10:31;;;;;;;0.20;0.20;;;;;;;2.72;100.00;100055.63;5077610;28;20450;-67
2022/09/29 06:12:57;;;;;;;0.32;0.32;;;;;;;2.77;100.00;100056.22;5073392;28;20549;-67
2022/09/29 06:15:23;;;;;;;0.20;0.20;;;;;;;2.80;100.00;100058.72;5076601;28;20028;-67
2022/09/29 06:17:55;;;;;;;0.10;0.10;;;;;;;2.84;100.00;100059.38;5077931;28;20047;-67
2022/09/29 06:20:21;;;;;;;0.20;0.20;;;;;;;2.88;100.00;100060.06;5087185;28;20035;-67
2022/09/29 06:22:47;;;;;;;0.10;0.10;;;;;;;2.95;100.00;100064.03;5085867;28;20031;-67
2022/09/29 06:25:12;;;;;;;0.20;0.20;;;;;;;2.97;100.00;100065.69;5084713;28;20078;-68
2022/09/29 06:27:38;;;;;;;0.10;0.10;;;;;;;2.97;100.00;100071.00;5087777;28;20032;-68
2022/09/29 06:30:04;;;;;;;0.13;0.13;;;;;;;2.82;100.00;100046.22;5087029;28;20020;-68
2022/09/29 06:32:29;;;;;;;0.10;0.10;;;;;;;2.99;100.00;100069.09;5091414;28;20085;-67
2022/09/29 06:37:42;;;;;;;0.25;0.25;;;;;;;2.94;100.00;100055.25;5087140;28;20039;-68
2022/09/29 06:40:09;;;;;;;0.30;0.30;;;;;;;3.14;100.00;100077.97;5086298;28;20028;-68
2022/09/29 06:42:34;;;;;;;0.10;0.10;;;;;;;3.20;100.00;100082.03;5089059;28;20762;-68
2022/09/29 06:45:00;;;;;;;0.28;0.28;;;;;;;3.29;100.00;100078.84;5090205;28;20048;-68
2022/09/29 06:47:25;;;;;;;0.20;0.20;;;;;;;3.38;100.00;100082.75;5094515;28;20073;-68
2022/09/29 06:49:50;;;;;;;0.10;0.10;;;;;;;3.44;100.00;100081.50;5083735;28;20028;-68
2022/09/29 06:52:16;;;;;;;0.10;0.10;;;;;;;3.53;100.00;100085.41;5083669;28;20028;-68
2022/09/29 06:54:42;;;;;;;0.10;0.10;;;;;;;3.61;100.00;100085.81;5090695;28;20055;-67
2022/09/29 06:57:08;;;;;;;0.10;0.10;;;;;;;3.71;100.00;100089.59;5076740;28;20031;-67
2022/09/29 06:59:33;;;;;;;0.10;0.10;;;;;;;3.75;100.00;100087.63;5083089;28;20070;-67
2022/09/29 07:01:58;;;;;;;0.10;0.10;;;;;;;3.83;100.00;100095.09;5087806;28;20230;-68
2022/09/29 07:04:24;;;;;;;0.10;0.10;;;;;;;3.82;100.00;100083.66;5089934;28;20081;-67
2022/09/29 07:06:49;;;;;;;0.10;0.10;;;;;;;3.90;100.00;100096.44;5085152;28;20028;-68
2022/09/29 07:09:15;;;;;;;0.10;0.10;;;;;;;3.92;100.00;100094.56;5090414;28;20111;-67
2022/09/29 07:11:45;;;;;;;0.10;0.10;;;;;;;4.05;100.00;100102.59;5089041;28;20060;-68
2022/09/29 07:14:14;;;;;;;0.10;0.10;;;;;;;4.13;100.00;100105.63;5086076;28;20032;-68
2022/09/29 07:16:40;;;;;;;0.20;0.20;;;;;;;4.22;100.00;100098.03;5085833;28;20024;-68
2022/09/29 07:19:05;;;;;;;0.10;0.10;;;;;;;4.27;100.00;100107.41;5083450;28;20034;-68
2022/09/29 07:21:30;;;;;;;0.10;0.10;;;;;;;4.35;100.00;100107.78;5092708;28;20016;-67
2022/09/29 07:23:56;;;;;;;0.10;0.10;;;;;;;4.30;100.00;100090.44;5087904;28;20028;-68
2022/09/29 07:26:21;;;;;;;0.20;0.20;;;;;;;4.60;100.00;100103.56;5081161;28;20363;-68
2022/09/29 07:28:47;;;;;;;0.10;0.10;;;;;;;4.83;100.00;100117.16;5080555;28;20030;-67
2022/09/29 07:31:21;;;;;;;0.10;0.10;;;;;;;5.00;100.00;100113.38;5082530;28;20024;-68
2022/09/29 07:33:48;;;;;;;0.10;0.10;;;;;;;5.20;100.00;100111.19;5078782;28;20031;-67
2022/09/29 07:36:16;;;;;;;0.20;0.20;;;;;;;5.39;100.00;100114.34;5076086;28;20028;-68
2022/09/29 07:38:44;;;;;;;0.10;0.10;;;;;;;5.55;100.00;100111.50;5081305;28;20863;-68
2022/09/29 07:41:10;;;;;;;0.20;0.20;;;;;;;5.90;100.00;100122.47;5086612;28;20071;-67
2022/09/29 07:43:36;;;;;;;0.20;0.20;;;;;;;5.98;100.00;100117.47;5087025;28;20047;-67
2022/09/29 07:46:01;;;;;;;0.13;0.13;;;;;;;5.99;100.00;100082.69;5081848;28;20575;-67
2022/09/29 07:48:27;;;;;;;0.20;0.20;;;;;;;6.31;100.00;100116.06;5082545;28;20047;-68
2022/09/29 07:51:03;;;;;;;0.20;0.20;;;;;;;6.32;100.00;100107.09;5078374;28;20028;-68
2022/09/29 07:53:29;;;;;;;0.13;0.13;;;;;;;6.48;100.00;100130.00;5083300;28;20153;-71
2022/09/29 07:55:55;;;;;;;0.20;0.20;;;;;;;6.57;100.00;100124.84;5083483;28;20145;-67
2022/09/29 07:58:20;;;;;;;0.10;0.10;;;;;;;6.69;100.00;100128.44;5084791;28;20066;-68
2022/09/29 08:00:52;;;;;;;0.20;0.20;;;;;;;6.77;100.00;100122.53;5072294;28;20098;-68
2022/09/29 08:03:17;;;;;;;0.10;0.10;;;;;;;6.99;100.00;100131.63;5083437;28;20115;-68
2022/09/29 08:05:43;;;;;;;0.20;0.20;;;;;;;7.19;100.00;100143.47;5085103;28;20020;-68
2022/09/29 08:08:08;;;;;;;0.20;0.20;;;;;;;7.35;100.00;100135.16;5084834;28;20043;-68
2022/09/29 08:10:34;;;;;;;0.20;0.20;;;;;;;7.47;100.00;100142.25;5079964;28;20479;-68
2022/09/29 08:12:59;;;;;;;0.30;0.30;;;;;;;7.54;100.00;100145.31;5084827;28;20044;-68
2022/09/29 08:15:25;;;;;;;0.10;0.10;;;;;;;7.72;100.00;100148.41;5082432;28;20031;-68
2022/09/29 08:17:52;;;;;;;0.10;0.10;;;;;;;7.99;100.00;100155.25;5088494;28;20031;-68
2022/09/29 08:20:17;;;;;;;0.10;0.10;;;;;;;8.00;100.00;100134.69;5086742;28;20035;-68
2022/09/29 08:22:43;;;;;;;0.20;0.20;;;;;;;8.32;100.00;100142.00;5078983;28;20028;-68
2022/09/29 08:25:08;;;;;;;0.10;0.10;;;;;;;8.43;100.00;100160.75;5078879;28;20024;-68
2022/09/29 08:27:34;;;;;;;0.20;0.20;;;;;;;8.57;100.00;100156.13;5075506;28;20026;-68
2022/09/29 08:29:59;;;;;;;0.17;0.17;;;;;;;8.48;100.00;100160.38;5083582;28;20024;-68
2022/09/29 08:32:24;;;;;;;0.10;0.10;;;;;;;8.69;100.00;100164.00;5088797;28;20035;-68
2022/09/29 08:34:50;;;;;;;0.10;0.10;;;;;;;8.79;100.00;100158.75;5087141;28;20048;-68
2022/09/29 08:37:15;;;;;;;0.10;0.10;;;;;;;9.02;100.00;100166.72;5083592;28;20051;-68
2022/09/29 08:39:41;;;;;;;0.10;0.10;;;;;;;9.04;100.00;100163.94;5080156;28;20043;-68
2022/09/29 08:42:21;;;;;;;0.13;0.13;;;;;;;9.36;100.00;100171.16;5085189;28;20028;-69
2022/09/29 08:44:57;;;;;;;0.10;0.10;;;;;;;9.28;100.00;100180.66;5091682;28;20064;-68
2022/09/29 08:47:29;;;;;;;0.10;0.10;;;;;;;9.43;100.00;100183.03;5080158;28;20466;-68
2022/09/29 08:50:19;;;;;;;0.10;0.10;;;;;;;9.40;100.00;100172.59;5080155;28;20028;-69
2022/09/29 08:52:49;;;;;;;0.10;0.10;;;;;;;9.65;100.00;100192.81;5080865;28;20020;-68
2022/09/29 08:55:14;;;;;;;0.10;0.10;;;;;;;9.65;100.00;100191.97;5070107;28;20028;-68
2022/09/29 08:57:40;;;;;;;0.10;0.10;;;;;;;9.79;100.00;100191.63;5080732;28;20076;-68
2022/09/29 09:00:10;;;;;;;0.10;0.10;;;;;;;9.83;100.00;100190.41;5084232;28;20534;-68
2022/09/29 09:02:49;;;;;;;0.10;0.10;;;;;;;10.17;100.00;100194.69;5078968;28;20432;-68
2022/09/29 09:05:26;;;;;;;0.10;0.10;;;;;;;10.43;100.00;100202.34;5077078;28;20159;-69
2022/09/29 09:08:15;;;;;;;0.10;0.10;;;;;;;10.35;100.00;100200.31;5083572;28;20027;-68
2022/09/29 09:11:21;;;;;;;0.20;0.17;;;;;;;10.32;100.00;100203.25;5081501;28;20454;-68
2022/09/29 09:14:06;;;;;;;0.17;0.17;;;;;;;10.60;100.00;100204.38;5080080;28;20111;-68
2022/09/29 09:16:49;;;;;;;0.05;0.05;;;;;;;10.78;100.00;100215.31;5080034;28;20106;-70
2022/09/29 09:19:38;;;;;;;0.10;0.10;;;;;;;10.97;100.00;100199.41;5077322;28;20043;-69
2022/09/29 09:22:22;;;;;;;0.20;0.20;;;;;;;11.21;100.00;100204.41;5092099;28;20047;-70
2022/09/29 09:24:53;;;;;;;;;;;;;;;11.15;100.00;100210.34;5078048;28;20534;-70
2022/09/29 09:27:23;;;;;;;0.10;0.10;;;;;;;11.15;100.00;100207.66;5080467;28;19915;-70
2022/09/29 09:29:59;;;;;;;0.10;0.10;;;;;;;11.24;100.00;100214.91;5086398;28;20028;-68
2022/09/29 09:32:27;;;;;;;0.10;0.10;;;;;;;11.21;100.00;100210.63;5080002;28;20875;-68
2022/09/29 09:35:30;;;;;;;0.10;0.10;;;;;;;11.34;100.00;100212.22;5081088;28;20382;-68
2022/09/29 09:37:59;;;;;;;0.00;0.00;;;;;;;11.68;99.00;100211.78;5077754;28;20024;-70
2022/09/29 09:40:28;;;;;;;0.10;0.10;;;;;;;11.94;100.00;100212.06;5076381;28;20135;-70
2022/09/29 09:43:09;;;;;;;0.08;0.08;;;;;;;11.83;100.00;100217.56;5071225;28;20024;-68
2022/09/29 09:45:38;;;;;;;0.10;0.10;;;;;;;11.75;97.89;100187.88;5077445;28;20107;-70
2022/09/29 09:48:21;;;;;;;0.00;0.00;;;;;;;12.14;100.00;100210.22;5079440;28;20032;-68
2022/09/29 09:50:48;;;;;;;0.10;0.10;;;;;;;12.45;94.06;100207.25;5078102;28;20015;-69
2022/09/29 09:53:36;;;;;;;0.10;0.10;;;;;;;12.66;93.44;100218.81;5077152;28;20036;-68
2022/09/29 09:56:11;;;;;;;0.10;0.10;;;;;;;12.94;93.37;100216.13;5083388;28;20043;-68
2022/09/29 09:58:53;;;;;;;0.10;0.10;;;;;;;12.98;93.23;100217.53;5072302;28;20025;-68
2022/09/29 10:01:18;;;;;;;0.00;0.00;;;;;;;12.95;90.14;100215.13;5075039;28;20039;-68
2022/09/29 10:03:44;;;;;;;0.00;0.00;;;;;;;13.26;87.85;100215.63;5069864;28;20028;-68
2022/09/29 10:06:09;;;;;;;0.10;0.10;;;;;;;13.20;92.53;100214.41;5071244;28;20017;-68
2022/09/29 10:08:38;;;;;;;0.00;0.00;;;;;;;13.55;90.41;100222.69;5073287;28;20086;-68
2022/09/29 10:11:17;;;;;;;0.10;0.10;;;;;;;13.82;85.58;100225.47;5076985;28;20032;-68
2022/09/29 10:13:44;;;;;;;0.08;0.08;;;;;;;13.77;85.15;100223.25;5074975;28;20391;-68
2022/09/29 10:16:24;;;;;;;0.10;0.10;;;;;;;13.80;83.16;100222.91;5072498;28;20059;-68
2022/09/29 10:18:53;;;;;;;0.00;0.00;;;;;;;13.98;85.42;100205.88;5075999;28;20371;-68
2022/09/29 10:21:28;;;;;;;0.10;0.10;;;;;;;14.41;84.75;100225.72;5080110;28;20036;-68
2022/09/29 10:24:01;;;;;;;0.10;0.10;;;;;;;14.33;79.42;100233.75;5076902;28;20522;-69
2022/09/29 10:26:42;;;;;;;0.10;0.10;;;;;;;14.77;79.83;100230.16;5076626;28;20115;-68
2022/09/29 10:29:38;;;;;;;0.10;0.10;;;;;;;14.77;77.40;100239.13;5082717;28;20466;-70
2022/09/29 10:32:22;;;;;;;0.10;0.10;;;;;;;14.09;82.93;100241.53;5083941;28;20028;-68
2022/09/29 10:35:03;;;;;;;0.00;0.00;;;;;;;13.64;80.46;100212.81;5086142;28;20051;-68
2022/09/29 10:37:35;;;;;;;0.00;0.00;;;;;;;13.53;84.92;100242.75;5079899;28;20028;-69
2022/09/29 10:40:16;;;;;;;0.10;0.10;;;;;;;13.97;81.25;100231.16;5084548;28;20024;-68
2022/09/29 10:42:47;;;;;;;0.10;0.10;;;;;;;14.55;79.29;100238.63;5081536;28;20390;-71
2022/09/29 10:45:26;;;;;;;0.10;0.10;;;;;;;15.75;75.12;100231.41;5070128;28;20036;-68
2022/09/29 10:47:57;;;;;;;0.00;0.00;;;;;;;15.32;76.36;100230.66;5082533;28;20036;-68
2022/09/29 10:50:25;;;;;;;0.00;0.00;;;;;;;15.06;75.50;100213.56;5084019;28;20063;-68
2022/09/29 10:52:58;;;;;;;0.10;0.10;;;;;;;15.69;75.64;100223.97;5056344;28;20090;-68
2022/09/29 10:55:28;;;;;;;0.10;0.10;;;;;;;15.47;72.97;100210.09;5079084;28;20035;-69
2022/09/29 10:57:56;;;;;;;0.10;0.10;;;;;;;15.92;70.92;100242.28;5078675;28;20553;-68
2022/09/29 11:00:36;;;;;;;0.10;0.10;;;;;;;16.49;74.75;100239.50;5083467;28;20066;-67
2022/09/29 11:03:15;;;;;;;0.00;0.00;;;;;;;17.88;67.64;100240.81;5073804;28;20033;-68
2022/09/29 11:05:51;;;;;;;0.00;0.00;;;;;;;17.12;71.11;100244.22;5080929;28;20109;-66
2022/09/29 11:08:18;;;;;;;0.00;0.00;;;;;;;17.98;67.47;100241.44;5074341;28;20028;-65
2022/09/29 11:10:46;;;;;;;0.10;0.10;;;;;;;18.62;65.10;100220.25;5067832;28;20466;-67
2022/09/29 11:13:23;;;;;;;0.00;0.00;;;;;;;18.42;60.70;100239.84;5081689;28;20032;-67
2022/09/29 11:15:49;;;;;;;0.00;0.00;;;;;;;17.00;62.49;100219.34;5081732;28;20050;-69
2022/09/29 11:18:20;;;;;;;0.10;0.10;;;;;;;18.67;58.10;100239.56;5089790;28;20020;-66
2022/09/29 11:20:49;;;;;;;0.10;0.10;;;;;;;18.65;58.24;100241.63;5080215;28;20056;-69
2022/09/29 11:23:25;;;;;;;0.10;0.10;;;;;;;18.52;53.76;100215.09;5079362;28;20395;-67
2022/09/29 11:26:06;;;;;;;0.00;0.00;;;;;;;18.72;57.58;100252.59;5082047;28;20035;-67
2022/09/29 11:28:36;;;;;;;0.00;0.00;;;;;;;16.41;63.09;100236.81;5085093;28;20078;-66
2022/09/29 11:31:13;;;;;;;0.00;0.00;;;;;;;15.84;64.87;100234.97;5085237;28;20063;-66
2022/09/29 11:34:10;;;;;;;0.00;0.00;;;;;;;15.26;68.04;100241.13;5080348;28;20067;-66
2022/09/29 11:36:51;;;;;;;0.00;0.00;;;;;;;15.23;70.21;100240.63;5076848;28;20096;-66
2022/09/29 11:39:36;;;;;;;0.00;0.00;;;;;;;15.54;71.02;100245.44;5080132;28;20039;-66
2022/09/29 11:42:20;;;;;;;0.00;0.00;;;;;;;15.65;68.97;100230.72;5088407;28;20147;-66
2022/09/29 11:44:59;;;;;;;0.10;0.10;;;;;;;17.88;60.45;100248.97;5089032;28;20536;-66